sensor_id;sensor_type;location;lat;lon;timestamp;temperature;humidity
1383;DHT22;685;47.196;11.880;2023-02-28T00:00:37;-0.90;99.90
1383;DHT22;685;47.196;11.880;2023-02-28T00:03:06;-0.90;99.90
1383;DHT22;685;47.196;11.880;2023-02-28T00:05:33;-0.90;99.90
1383;DHT22;685;47.196;11.880;2023-02-28T00:08:00;-0.80;99.90
1383;DHT22;685;47.196;11.880;2023-02-28T00:10:28;-0.60;99.90
1383;DHT22;685;47.196;11.880;2023-02-28T00:13:00;-0.70;99.90
1383;DHT22;685;47.196;11.880;2023-02-28T00:15:27;-0.80;99.90
1383;DHT22;685;47.196;11.880;2023-02-28T00:17:54;-0.90;99.90
1383;DHT22;685;47.196;11.880;2023-02-28T00:20:22;-1.00;99.90
1383;DHT22;685;47.196;11.880;2023-02-28T00:22:51;-1.10;99.90
1383;DHT22;685;47.196;11.880;2023-02-28T00:25:20;-1.00;99.90
1383;DHT22;685;47.196;11.880;2023-02-28T00:27:48;-0.80;99.90
1383;DHT22;685;47.196;11.880;2023-02-28T00:30:17;-0.80;99.90
1383;DHT22;685;47.196;11.880;2023-02-28T00:32:44;-0.80;99.90
1383;DHT22;685;47.196;11.880;2023-02-28T00:35:11;-0.80;99.90
1383;DHT22;685;47.196;11.880;2023-02-28T00:37:40;-0.70;99.90
1383;DHT22;685;47.196;11.880;2023-02-28T00:40:08;-0.80;99.90
1383;DHT22;685;47.196;11.880;2023-02-28T00:42:37;-0.70;99.90
1383;DHT22;685;47.196;11.880;2023-02-28T00:45:05;-0.60;99.90
1383;DHT22;685;47.196;11.880;2023-02-28T00:47:32;-0.50;99.90
1383;DHT22;685;47.196;11.880;2023-02-28T00:49:59;-0.60;99.90
1383;DHT22;685;47.196;11.880;2023-02-28T00:52:26;-0.40;99.90
1383;DHT22;685;47.196;11.880;2023-02-28T00:54:55;-0.20;99.90
1383;DHT22;685;47.196;11.880;2023-02-28T00:57:22;-0.20;99.90
1383;DHT22;685;47.196;11.880;2023-02-28T00:59:49;-0.10;99.90
1383;DHT22;685;47.196;11.880;2023-02-28T01:02:16;-0.30;99.90
1383;DHT22;685;47.196;11.880;2023-02-28T01:04:43;-0.40;99.90
1383;DHT22;685;47.196;11.880;2023-02-28T01:07:10;-0.30;99.90
1383;DHT22;685;47.196;11.880;2023-02-28T01:09:37;-0.20;99.90
1383;DHT22;685;47.196;11.880;2023-02-28T01:12:06;-0.10;99.90
1383;DHT22;685;47.196;11.880;2023-02-28T01:14:33;-0.10;99.90
1383;DHT22;685;47.196;11.880;2023-02-28T01:17:01;-0.20;99.90
1383;DHT22;685;47.196;11.880;2023-02-28T01:19:28;-0.20;99.90
1383;DHT22;685;47.196;11.880;2023-02-28T01:21:55;-0.20;99.90
1383;DHT22;685;47.196;11.880;2023-02-28T01:24:22;-0.20;99.90
1383;DHT22;685;47.196;11.880;2023-02-28T01:26:49;-0.20;99.90
1383;DHT22;685;47.196;11.880;2023-02-28T01:29:17;-0.30;99.90
1383;DHT22;685;47.196;11.880;2023-02-28T01:31:44;-0.50;99.90
1383;DHT22;685;47.196;11.880;2023-02-28T01:34:11;-0.30;99.90
1383;DHT22;685;47.196;11.880;2023-02-28T01:36:38;-0.40;99.90
1383;DHT22;685;47.196;11.880;2023-02-28T01:39:04;-0.30;99.90
1383;DHT22;685;47.196;11.880;2023-02-28T01:41:33;-0.30;99.90
1383;DHT22;685;47.196;11.880;2023-02-28T01:44:03;-0.40;99.90
1383;DHT22;685;47.196;11.880;2023-02-28T01:46:34;-0.30;99.90
1383;DHT22;685;47.196;11.880;2023-02-28T01:49:05;-0.30;99.90
1383;DHT22;685;47.196;11.880;2023-02-28T01:51:37;-0.40;99.90
1383;DHT22;685;47.196;11.880;2023-02-28T01:54:08;-0.60;99.90
1383;DHT22;685;47.196;11.880;2023-02-28T01:56:43;-0.60;99.90
1383;DHT22;685;47.196;11.880;2023-02-28T01:59:12;-0.70;99.90
1383;DHT22;685;47.196;11.880;2023-02-28T02:01:42;-0.80;99.90
1383;DHT22;685;47.196;11.880;2023-02-28T02:04:09;-0.60;99.90
1383;DHT22;685;47.196;11.880;2023-02-28T02:06:39;-0.90;99.90
1383;DHT22;685;47.196;11.880;2023-02-28T02:09:06;-1.30;99.90
1383;DHT22;685;47.196;11.880;2023-02-28T02:11:34;-1.10;99.90
1383;DHT22;685;47.196;11.880;2023-02-28T02:14:22;-0.90;99.90
1383;DHT22;685;47.196;11.880;2023-02-28T02:17:04;-0.90;99.90
1383;DHT22;685;47.196;11.880;2023-02-28T02:20:04;-1.20;99.90
1383;DHT22;685;47.196;11.880;2023-02-28T02:25:45;-1.00;99.90
1383;DHT22;685;47.196;11.880;2023-02-28T02:28:40;-0.90;99.90
1383;DHT22;685;47.196;11.880;2023-02-28T02:37:14;-1.10;99.90
1383;DHT22;685;47.196;11.880;2023-02-28T02:39:48;-0.90;99.90
1383;DHT22;685;47.196;11.880;2023-02-28T02:42:23;-0.90;99.90
1383;DHT22;685;47.196;11.880;2023-02-28T02:44:58;-0.90;99.90
1383;DHT22;685;47.196;11.880;2023-02-28T02:47:28;-0.90;99.90
1383;DHT22;685;47.196;11.880;2023-02-28T02:50:01;-0.80;99.90
1383;DHT22;685;47.196;11.880;2023-02-28T02:52:34;-0.70;99.90
1383;DHT22;685;47.196;11.880;2023-02-28T02:55:02;-0.70;99.90
1383;DHT22;685;47.196;11.880;2023-02-28T02:57:33;-0.60;99.90
1383;DHT22;685;47.196;11.880;2023-02-28T03:00:04;-0.60;99.90
1383;DHT22;685;47.196;11.880;2023-02-28T03:02:34;-0.70;99.90
1383;DHT22;685;47.196;11.880;2023-02-28T03:05:08;-0.70;99.90
1383;DHT22;685;47.196;11.880;2023-02-28T03:07:35;-0.90;99.90
1383;DHT22;685;47.196;11.880;2023-02-28T03:10:03;-0.90;99.90
1383;DHT22;685;47.196;11.880;2023-02-28T03:12:55;-0.70;99.90
1383;DHT22;685;47.196;11.880;2023-02-28T03:15:32;-0.80;99.90
1383;DHT22;685;47.196;11.880;2023-02-28T03:18:07;-0.80;99.90
1383;DHT22;685;47.196;11.880;2023-02-28T03:20:40;-0.80;99.90
1383;DHT22;685;47.196;11.880;2023-02-28T03:23:15;-1.00;99.90
1383;DHT22;685;47.196;11.880;2023-02-28T03:25:54;-1.50;99.90
1383;DHT22;685;47.196;11.880;2023-02-28T03:31:00;-1.90;99.90
1383;DHT22;685;47.196;11.880;2023-02-28T03:33:34;-2.10;99.90
1383;DHT22;685;47.196;11.880;2023-02-28T03:36:07;-1.90;99.90
1383;DHT22;685;47.196;11.880;2023-02-28T03:38:39;-1.80;99.90
1383;DHT22;685;47.196;11.880;2023-02-28T03:41:13;-1.60;99.90
1383;DHT22;685;47.196;11.880;2023-02-28T03:43:45;-1.70;99.90
1383;DHT22;685;47.196;11.880;2023-02-28T03:46:16;-1.70;99.90
1383;DHT22;685;47.196;11.880;2023-02-28T03:48:51;-1.80;99.90
1383;DHT22;685;47.196;11.880;2023-02-28T03:51:23;-1.90;99.90
1383;DHT22;685;47.196;11.880;2023-02-28T03:53:52;-2.10;99.90
1383;DHT22;685;47.196;11.880;2023-02-28T03:56:23;-2.10;99.90
1383;DHT22;685;47.196;11.880;2023-02-28T03:58:55;-1.90;99.90
1383;DHT22;685;47.196;11.880;2023-02-28T04:01:26;-1.60;99.90
1383;DHT22;685;47.196;11.880;2023-02-28T04:03:54;-1.50;99.90
1383;DHT22;685;47.196;11.880;2023-02-28T04:06:24;-1.40;99.90
1383;DHT22;685;47.196;11.880;2023-02-28T04:08:51;-1.30;99.90
1383;DHT22;685;47.196;11.880;2023-02-28T04:11:24;-1.60;99.90
1383;DHT22;685;47.196;11.880;2023-02-28T04:13:52;-1.60;99.90
1383;DHT22;685;47.196;11.880;2023-02-28T04:16:18;-1.60;99.90
1383;DHT22;685;47.196;11.880;2023-02-28T04:18:45;-1.60;99.90
1383;DHT22;685;47.196;11.880;2023-02-28T04:21:13;-1.50;99.90
1383;DHT22;685;47.196;11.880;2023-02-28T04:23:41;-1.50;99.90
1383;DHT22;685;47.196;11.880;2023-02-28T04:26:08;-1.50;99.90
1383;DHT22;685;47.196;11.880;2023-02-28T04:28:37;-1.50;99.90
1383;DHT22;685;47.196;11.880;2023-02-28T04:31:04;-1.50;99.90
1383;DHT22;685;47.196;11.880;2023-02-28T04:33:32;-1.40;99.90
1383;DHT22;685;47.196;11.880;2023-02-28T04:36:00;-1.50;99.90
1383;DHT22;685;47.196;11.880;2023-02-28T04:38:29;-1.90;99.90
1383;DHT22;685;47.196;11.880;2023-02-28T04:40:58;-2.10;99.90
1383;DHT22;685;47.196;11.880;2023-02-28T04:43:26;-2.10;99.90
1383;DHT22;685;47.196;11.880;2023-02-28T04:45:53;-1.70;99.90
1383;DHT22;685;47.196;11.880;2023-02-28T04:48:22;-2.00;99.90
1383;DHT22;685;47.196;11.880;2023-02-28T04:50:49;-1.80;99.90
1383;DHT22;685;47.196;11.880;2023-02-28T04:53:15;-1.60;99.90
1383;DHT22;685;47.196;11.880;2023-02-28T04:55:43;-1.50;99.90
1383;DHT22;685;47.196;11.880;2023-02-28T04:58:11;-1.60;99.90
1383;DHT22;685;47.196;11.880;2023-02-28T05:00:38;-1.60;99.90
1383;DHT22;685;47.196;11.880;2023-02-28T05:03:05;-2.00;99.90
1383;DHT22;685;47.196;11.880;2023-02-28T05:05:32;-1.80;99.90
1383;DHT22;685;47.196;11.880;2023-02-28T05:07:59;-1.70;99.90
1383;DHT22;685;47.196;11.880;2023-02-28T05:10:26;-1.70;99.90
1383;DHT22;685;47.196;11.880;2023-02-28T05:12:53;-1.60;99.90
1383;DHT22;685;47.196;11.880;2023-02-28T05:15:23;-1.60;99.90
1383;DHT22;685;47.196;11.880;2023-02-28T05:17:50;-1.60;99.90
1383;DHT22;685;47.196;11.880;2023-02-28T05:20:17;-1.70;99.90
1383;DHT22;685;47.196;11.880;2023-02-28T05:22:44;-1.70;99.90
1383;DHT22;685;47.196;11.880;2023-02-28T05:25:14;-1.70;99.90
1383;DHT22;685;47.196;11.880;2023-02-28T05:27:42;-1.70;99.90
1383;DHT22;685;47.196;11.880;2023-02-28T05:30:10;-1.60;99.90
1383;DHT22;685;47.196;11.880;2023-02-28T05:32:39;-1.60;99.90
1383;DHT22;685;47.196;11.880;2023-02-28T05:35:09;-1.80;99.90
1383;DHT22;685;47.196;11.880;2023-02-28T05:37:37;-1.80;99.90
1383;DHT22;685;47.196;11.880;2023-02-28T05:40:05;-1.80;99.90
1383;DHT22;685;47.196;11.880;2023-02-28T05:42:33;-1.90;99.90
1383;DHT22;685;47.196;11.880;2023-02-28T05:45:00;-1.70;99.90
1383;DHT22;685;47.196;11.880;2023-02-28T05:47:27;-1.70;99.90
1383;DHT22;685;47.196;11.880;2023-02-28T05:49:55;-1.70;99.90
1383;DHT22;685;47.196;11.880;2023-02-28T05:52:22;-1.60;99.90
1383;DHT22;685;47.196;11.880;2023-02-28T05:54:49;-1.60;99.90
1383;DHT22;685;47.196;11.880;2023-02-28T05:57:16;-1.60;99.90
1383;DHT22;685;47.196;11.880;2023-02-28T05:59:43;-1.60;99.90
1383;DHT22;685;47.196;11.880;2023-02-28T06:02:13;-1.60;99.90
1383;DHT22;685;47.196;11.880;2023-02-28T06:04:40;-1.70;99.90
1383;DHT22;685;47.196;11.880;2023-02-28T06:07:09;-1.80;99.90
1383;DHT22;685;47.196;11.880;2023-02-28T06:09:37;-2.40;99.90
1383;DHT22;685;47.196;11.880;2023-02-28T06:12:06;-2.50;99.90
1383;DHT22;685;47.196;11.880;2023-02-28T06:14:35;-2.60;99.90
1383;DHT22;685;47.196;11.880;2023-02-28T06:17:16;-2.20;99.90
1383;DHT22;685;47.196;11.880;2023-02-28T06:19:43;-2.10;99.90
1383;DHT22;685;47.196;11.880;2023-02-28T06:22:11;-2.10;99.90
1383;DHT22;685;47.196;11.880;2023-02-28T06:24:38;-2.20;99.90
1383;DHT22;685;47.196;11.880;2023-02-28T06:27:04;-2.40;99.90
1383;DHT22;685;47.196;11.880;2023-02-28T06:29:32;-2.40;99.90
1383;DHT22;685;47.196;11.880;2023-02-28T06:31:59;-2.40;99.90
1383;DHT22;685;47.196;11.880;2023-02-28T06:34:26;-2.20;99.90
1383;DHT22;685;47.196;11.880;2023-02-28T06:36:53;-2.10;99.90
1383;DHT22;685;47.196;11.880;2023-02-28T06:39:21;-2.00;99.90
1383;DHT22;685;47.196;11.880;2023-02-28T06:41:48;-1.90;99.90
1383;DHT22;685;47.196;11.880;2023-02-28T06:44:17;-1.80;99.90
1383;DHT22;685;47.196;11.880;2023-02-28T06:46:45;-1.70;99.90
1383;DHT22;685;47.196;11.880;2023-02-28T06:49:12;-1.70;99.90
1383;DHT22;685;47.196;11.880;2023-02-28T06:51:41;-1.80;99.90
1383;DHT22;685;47.196;11.880;2023-02-28T06:54:10;-1.80;99.90
1383;DHT22;685;47.196;11.880;2023-02-28T06:56:39;-1.70;99.90
1383;DHT22;685;47.196;11.880;2023-02-28T06:59:06;-1.60;99.90
1383;DHT22;685;47.196;11.880;2023-02-28T07:01:33;-1.70;99.90
1383;DHT22;685;47.196;11.880;2023-02-28T07:04:00;-1.60;99.90
1383;DHT22;685;47.196;11.880;2023-02-28T07:06:28;-1.70;99.90
1383;DHT22;685;47.196;11.880;2023-02-28T07:08:54;-1.70;99.90
1383;DHT22;685;47.196;11.880;2023-02-28T07:11:23;-1.60;99.90
1383;DHT22;685;47.196;11.880;2023-02-28T07:13:52;-1.80;99.90
1383;DHT22;685;47.196;11.880;2023-02-28T07:16:19;-1.90;99.90
1383;DHT22;685;47.196;11.880;2023-02-28T07:18:46;-1.80;99.90
1383;DHT22;685;47.196;11.880;2023-02-28T07:21:13;-1.70;99.90
1383;DHT22;685;47.196;11.880;2023-02-28T07:23:40;-1.70;99.90
1383;DHT22;685;47.196;11.880;2023-02-28T07:26:11;-1.80;99.90
1383;DHT22;685;47.196;11.880;2023-02-28T07:28:40;-2.00;99.90
1383;DHT22;685;47.196;11.880;2023-02-28T07:31:10;-2.30;99.90
1383;DHT22;685;47.196;11.880;2023-02-28T07:33:38;-2.20;99.90
1383;DHT22;685;47.196;11.880;2023-02-28T07:36:07;-2.20;99.90
1383;DHT22;685;47.196;11.880;2023-02-28T07:38:34;-2.10;99.90
1383;DHT22;685;47.196;11.880;2023-02-28T07:41:02;-2.10;99.90
1383;DHT22;685;47.196;11.880;2023-02-28T07:43:30;-2.10;99.90
1383;DHT22;685;47.196;11.880;2023-02-28T07:46:01;-2.10;99.90
1383;DHT22;685;47.196;11.880;2023-02-28T07:48:30;-1.80;99.90
1383;DHT22;685;47.196;11.880;2023-02-28T07:50:58;-1.70;99.90
1383;DHT22;685;47.196;11.880;2023-02-28T07:53:25;-1.60;99.90
1383;DHT22;685;47.196;11.880;2023-02-28T07:55:55;-1.60;99.90
1383;DHT22;685;47.196;11.880;2023-02-28T07:58:22;-1.70;99.90
1383;DHT22;685;47.196;11.880;2023-02-28T08:00:49;-1.80;99.90
1383;DHT22;685;47.196;11.880;2023-02-28T08:03:17;-1.80;99.90
1383;DHT22;685;47.196;11.880;2023-02-28T08:05:45;-1.80;99.90
1383;DHT22;685;47.196;11.880;2023-02-28T08:08:13;-1.70;99.90
1383;DHT22;685;47.196;11.880;2023-02-28T08:10:40;-1.70;99.90
1383;DHT22;685;47.196;11.880;2023-02-28T08:13:07;-1.60;99.90
1383;DHT22;685;47.196;11.880;2023-02-28T08:15:34;-1.40;99.90
1383;DHT22;685;47.196;11.880;2023-02-28T08:18:01;-1.40;99.90
1383;DHT22;685;47.196;11.880;2023-02-28T08:20:28;-1.30;99.90
1383;DHT22;685;47.196;11.880;2023-02-28T08:22:57;-1.20;99.90
1383;DHT22;685;47.196;11.880;2023-02-28T08:25:24;-1.30;99.90
1383;DHT22;685;47.196;11.880;2023-02-28T08:27:51;-1.40;99.90
1383;DHT22;685;47.196;11.880;2023-02-28T08:30:19;-1.60;99.90
1383;DHT22;685;47.196;11.880;2023-02-28T08:32:46;-1.80;99.90
1383;DHT22;685;47.196;11.880;2023-02-28T08:35:12;-1.80;99.90
1383;DHT22;685;47.196;11.880;2023-02-28T08:37:39;-1.80;99.90
1383;DHT22;685;47.196;11.880;2023-02-28T08:40:09;-1.80;99.90
1383;DHT22;685;47.196;11.880;2023-02-28T08:42:36;-1.80;99.90
1383;DHT22;685;47.196;11.880;2023-02-28T08:45:04;-1.70;99.90
1383;DHT22;685;47.196;11.880;2023-02-28T08:47:31;-1.80;99.90
1383;DHT22;685;47.196;11.880;2023-02-28T08:49:58;-1.90;99.90
1383;DHT22;685;47.196;11.880;2023-02-28T08:52:25;-1.80;99.90
1383;DHT22;685;47.196;11.880;2023-02-28T08:54:51;-1.60;99.90
1383;DHT22;685;47.196;11.880;2023-02-28T08:57:20;-1.40;99.90
1383;DHT22;685;47.196;11.880;2023-02-28T08:59:47;-1.40;99.90
1383;DHT22;685;47.196;11.880;2023-02-28T09:02:14;-1.30;99.90
1383;DHT22;685;47.196;11.880;2023-02-28T09:04:41;-1.10;99.90
1383;DHT22;685;47.196;11.880;2023-02-28T09:07:11;-0.90;99.90
1383;DHT22;685;47.196;11.880;2023-02-28T09:09:37;-0.70;99.90
1383;DHT22;685;47.196;11.880;2023-02-28T09:12:21;-0.70;99.90
1383;DHT22;685;47.196;11.880;2023-02-28T09:14:48;-1.00;99.90
1383;DHT22;685;47.196;11.880;2023-02-28T09:17:15;-1.00;99.90
1383;DHT22;685;47.196;11.880;2023-02-28T09:19:42;-0.90;99.90
1383;DHT22;685;47.196;11.880;2023-02-28T09:22:09;-0.80;99.90
1383;DHT22;685;47.196;11.880;2023-02-28T09:24:37;-0.60;99.90
1383;DHT22;685;47.196;11.880;2023-02-28T09:27:04;-0.40;99.90
1383;DHT22;685;47.196;11.880;2023-02-28T09:29:34;-0.10;99.90
1383;DHT22;685;47.196;11.880;2023-02-28T09:32:01;-0.20;99.90
1383;DHT22;685;47.196;11.880;2023-02-28T09:34:28;-0.10;99.90
1383;DHT22;685;47.196;11.880;2023-02-28T09:36:56;0.10;99.90
1383;DHT22;685;47.196;11.880;2023-02-28T09:39:23;0.10;99.90
1383;DHT22;685;47.196;11.880;2023-02-28T09:41:53;-0.10;99.90
1383;DHT22;685;47.196;11.880;2023-02-28T09:44:25;0.00;99.90
1383;DHT22;685;47.196;11.880;2023-02-28T09:46:57;0.40;99.90
1383;DHT22;685;47.196;11.880;2023-02-28T09:49:34;0.60;99.90
1383;DHT22;685;47.196;11.880;2023-02-28T09:52:04;0.60;99.90
1383;DHT22;685;47.196;11.880;2023-02-28T09:54:35;0.40;99.90
1383;DHT22;685;47.196;11.880;2023-02-28T09:57:07;0.10;99.90
1383;DHT22;685;47.196;11.880;2023-02-28T09:59:49;0.40;99.90
1383;DHT22;685;47.196;11.880;2023-02-28T10:02:38;0.40;99.90
1383;DHT22;685;47.196;11.880;2023-02-28T10:05:11;0.50;99.90
1383;DHT22;685;47.196;11.880;2023-02-28T10:07:54;0.60;99.90
1383;DHT22;685;47.196;11.880;2023-02-28T10:10:26;0.80;99.90
1383;DHT22;685;47.196;11.880;2023-02-28T10:12:57;0.90;99.90
1383;DHT22;685;47.196;11.880;2023-02-28T10:15:27;0.90;99.90
1383;DHT22;685;47.196;11.880;2023-02-28T10:18:00;1.00;99.90
1383;DHT22;685;47.196;11.880;2023-02-28T10:20:30;1.30;99.90
1383;DHT22;685;47.196;11.880;2023-02-28T10:23:04;1.40;99.90
1383;DHT22;685;47.196;11.880;2023-02-28T10:25:34;1.60;99.90
1383;DHT22;685;47.196;11.880;2023-02-28T10:28:10;1.70;99.90
1383;DHT22;685;47.196;11.880;2023-02-28T10:30:39;1.80;99.90
1383;DHT22;685;47.196;11.880;2023-02-28T10:33:23;1.80;99.90
1383;DHT22;685;47.196;11.880;2023-02-28T10:35:50;1.80;99.90
1383;DHT22;685;47.196;11.880;2023-02-28T10:38:20;1.80;99.90
1383;DHT22;685;47.196;11.880;2023-02-28T10:40:48;2.00;99.90
1383;DHT22;685;47.196;11.880;2023-02-28T10:43:20;2.00;99.90
1383;DHT22;685;47.196;11.880;2023-02-28T10:45:57;2.10;99.90
1383;DHT22;685;47.196;11.880;2023-02-28T10:48:30;2.10;99.90
1383;DHT22;685;47.196;11.880;2023-02-28T10:50:58;2.40;99.90
1383;DHT22;685;47.196;11.880;2023-02-28T10:53:32;2.30;99.90
1383;DHT22;685;47.196;11.880;2023-02-28T10:56:02;1.90;99.90
1383;DHT22;685;47.196;11.880;2023-02-28T10:58:31;2.20;99.90
1383;DHT22;685;47.196;11.880;2023-02-28T11:00:59;2.40;99.90
1383;DHT22;685;47.196;11.880;2023-02-28T11:03:32;2.60;99.90
1383;DHT22;685;47.196;11.880;2023-02-28T11:06:05;2.50;99.90
1383;DHT22;685;47.196;11.880;2023-02-28T11:08:34;2.50;99.90
1383;DHT22;685;47.196;11.880;2023-02-28T11:11:05;2.80;99.90
1383;DHT22;685;47.196;11.880;2023-02-28T11:13:34;2.80;99.90
1383;DHT22;685;47.196;11.880;2023-02-28T11:16:04;2.80;99.90
1383;DHT22;685;47.196;11.880;2023-02-28T11:18:40;2.50;99.90
1383;DHT22;685;47.196;11.880;2023-02-28T11:21:08;2.40;99.90
1383;DHT22;685;47.196;11.880;2023-02-28T11:23:39;2.80;99.90
1383;DHT22;685;47.196;11.880;2023-02-28T11:26:07;3.00;99.90
1383;DHT22;685;47.196;11.880;2023-02-28T11:28:38;2.90;99.90
1383;DHT22;685;47.196;11.880;2023-02-28T11:31:15;2.80;99.90
1383;DHT22;685;47.196;11.880;2023-02-28T11:33:48;3.10;99.90
1383;DHT22;685;47.196;11.880;2023-02-28T11:36:19;3.10;99.90
1383;DHT22;685;47.196;11.880;2023-02-28T11:38:46;3.10;99.90
1383;DHT22;685;47.196;11.880;2023-02-28T11:41:28;3.00;99.90
1383;DHT22;685;47.196;11.880;2023-02-28T11:44:09;3.10;99.90
1383;DHT22;685;47.196;11.880;2023-02-28T11:46:44;3.30;99.90
1383;DHT22;685;47.196;11.880;2023-02-28T11:49:29;3.30;99.90
1383;DHT22;685;47.196;11.880;2023-02-28T11:52:00;3.30;99.90
1383;DHT22;685;47.196;11.880;2023-02-28T11:54:53;3.50;99.90
1383;DHT22;685;47.196;11.880;2023-02-28T11:57:47;3.50;99.90
1383;DHT22;685;47.196;11.880;2023-02-28T12:00:39;3.60;99.90
1383;DHT22;685;47.196;11.880;2023-02-28T12:03:17;3.50;99.90
1383;DHT22;685;47.196;11.880;2023-02-28T12:05:57;3.60;99.90
1383;DHT22;685;47.196;11.880;2023-02-28T12:08:47;3.70;99.90
1383;DHT22;685;47.196;11.880;2023-02-28T12:11:23;3.80;99.90
1383;DHT22;685;47.196;11.880;2023-02-28T12:14:03;3.90;99.90
1383;DHT22;685;47.196;11.880;2023-02-28T12:16:48;4.00;99.90
1383;DHT22;685;47.196;11.880;2023-02-28T12:19:21;3.90;99.90
1383;DHT22;685;47.196;11.880;2023-02-28T12:22:15;3.90;99.90
1383;DHT22;685;47.196;11.880;2023-02-28T12:24:55;4.00;99.90
1383;DHT22;685;47.196;11.880;2023-02-28T12:27:28;4.10;99.90
1383;DHT22;685;47.196;11.880;2023-02-28T12:30:00;4.10;99.90
1383;DHT22;685;47.196;11.880;2023-02-28T12:32:31;4.00;99.90
1383;DHT22;685;47.196;11.880;2023-02-28T12:35:03;4.00;99.90
1383;DHT22;685;47.196;11.880;2023-02-28T12:37:36;4.00;99.90
1383;DHT22;685;47.196;11.880;2023-02-28T12:40:11;3.80;99.90
1383;DHT22;685;47.196;11.880;2023-02-28T12:42:41;4.00;99.90
1383;DHT22;685;47.196;11.880;2023-02-28T12:45:12;3.90;99.90
1383;DHT22;685;47.196;11.880;2023-02-28T12:47:42;3.90;99.90
1383;DHT22;685;47.196;11.880;2023-02-28T12:50:11;3.80;99.90
1383;DHT22;685;47.196;11.880;2023-02-28T12:52:48;3.90;99.90
1383;DHT22;685;47.196;11.880;2023-02-28T12:55:23;4.00;99.90
1383;DHT22;685;47.196;11.880;2023-02-28T12:57:59;4.00;99.90
1383;DHT22;685;47.196;11.880;2023-02-28T13:00:34;4.00;99.90
1383;DHT22;685;47.196;11.880;2023-02-28T13:03:24;3.90;99.90
1383;DHT22;685;47.196;11.880;2023-02-28T13:06:28;4.00;99.90
1383;DHT22;685;47.196;11.880;2023-02-28T13:09:03;4.10;99.90
1383;DHT22;685;47.196;11.880;2023-02-28T13:11:37;4.10;99.90
1383;DHT22;685;47.196;11.880;2023-02-28T13:14:16;4.10;99.90
1383;DHT22;685;47.196;11.880;2023-02-28T13:16:59;4.20;99.90
1383;DHT22;685;47.196;11.880;2023-02-28T13:19:29;4.30;99.90
1383;DHT22;685;47.196;11.880;2023-02-28T13:21:57;4.30;99.90
1383;DHT22;685;47.196;11.880;2023-02-28T13:24:50;4.30;99.90
1383;DHT22;685;47.196;11.880;2023-02-28T13:27:24;4.30;99.90
1383;DHT22;685;47.196;11.880;2023-02-28T13:29:52;4.20;99.90
1383;DHT22;685;47.196;11.880;2023-02-28T13:32:29;4.30;99.90
1383;DHT22;685;47.196;11.880;2023-02-28T13:35:35;4.40;99.90
1383;DHT22;685;47.196;11.880;2023-02-28T13:38:17;4.60;99.90
1383;DHT22;685;47.196;11.880;2023-02-28T13:40:49;4.70;99.90
1383;DHT22;685;47.196;11.880;2023-02-28T13:43:17;4.80;99.90
1383;DHT22;685;47.196;11.880;2023-02-28T13:46:08;4.80;99.90
1383;DHT22;685;47.196;11.880;2023-02-28T13:48:36;4.80;99.90
1383;DHT22;685;47.196;11.880;2023-02-28T13:51:27;4.80;99.90
1383;DHT22;685;47.196;11.880;2023-02-28T13:54:00;5.00;99.90
1383;DHT22;685;47.196;11.880;2023-02-28T13:56:42;5.20;99.90
1383;DHT22;685;47.196;11.880;2023-02-28T13:59:20;5.20;99.90
1383;DHT22;685;47.196;11.880;2023-02-28T14:02:01;5.30;99.90
1383;DHT22;685;47.196;11.880;2023-02-28T14:04:50;5.30;99.90
1383;DHT22;685;47.196;11.880;2023-02-28T14:07:22;5.10;99.90
1383;DHT22;685;47.196;11.880;2023-02-28T14:09:56;5.10;99.90
1383;DHT22;685;47.196;11.880;2023-02-28T14:13:00;5.00;99.90
1383;DHT22;685;47.196;11.880;2023-02-28T14:15:40;5.10;99.90
1383;DHT22;685;47.196;11.880;2023-02-28T14:18:20;5.20;99.90
1383;DHT22;685;47.196;11.880;2023-02-28T14:20:51;5.10;99.90
1383;DHT22;685;47.196;11.880;2023-02-28T14:23:34;5.10;99.90
1383;DHT22;685;47.196;11.880;2023-02-28T14:26:05;5.20;99.90
1383;DHT22;685;47.196;11.880;2023-02-28T14:28:50;5.10;99.90
1383;DHT22;685;47.196;11.880;2023-02-28T14:31:24;5.20;99.90
1383;DHT22;685;47.196;11.880;2023-02-28T14:34:05;5.10;99.90
1383;DHT22;685;47.196;11.880;2023-02-28T14:36:41;5.10;99.90
1383;DHT22;685;47.196;11.880;2023-02-28T14:39:13;5.20;99.90
1383;DHT22;685;47.196;11.880;2023-02-28T14:41:42;5.20;99.90
1383;DHT22;685;47.196;11.880;2023-02-28T14:44:18;5.30;99.90
1383;DHT22;685;47.196;11.880;2023-02-28T14:46:48;5.20;99.90
1383;DHT22;685;47.196;11.880;2023-02-28T14:49:19;5.20;99.90
1383;DHT22;685;47.196;11.880;2023-02-28T14:51:49;5.10;99.90
1383;DHT22;685;47.196;11.880;2023-02-28T14:54:20;5.10;99.90
1383;DHT22;685;47.196;11.880;2023-02-28T14:56:50;5.10;99.90
1383;DHT22;685;47.196;11.880;2023-02-28T14:59:25;4.90;99.90
1383;DHT22;685;47.196;11.880;2023-02-28T15:02:17;4.90;99.90
1383;DHT22;685;47.196;11.880;2023-02-28T15:04:53;4.80;99.90
1383;DHT22;685;47.196;11.880;2023-02-28T15:07:20;4.70;99.90
1383;DHT22;685;47.196;11.880;2023-02-28T15:10:15;4.50;99.90
1383;DHT22;685;47.196;11.880;2023-02-28T15:12:49;4.40;99.90
1383;DHT22;685;47.196;11.880;2023-02-28T15:15:20;4.30;99.90
1383;DHT22;685;47.196;11.880;2023-02-28T15:17:51;4.20;99.90
1383;DHT22;685;47.196;11.880;2023-02-28T15:20:20;4.10;99.90
1383;DHT22;685;47.196;11.880;2023-02-28T15:22:50;4.10;99.90
1383;DHT22;685;47.196;11.880;2023-02-28T15:25:20;4.20;99.90
1383;DHT22;685;47.196;11.880;2023-02-28T15:27:50;4.10;99.90
1383;DHT22;685;47.196;11.880;2023-02-28T15:30:21;4.10;99.90
1383;DHT22;685;47.196;11.880;2023-02-28T15:33:05;4.00;99.90
1383;DHT22;685;47.196;11.880;2023-02-28T15:35:34;4.00;99.90
1383;DHT22;685;47.196;11.880;2023-02-28T15:38:02;3.90;99.90
1383;DHT22;685;47.196;11.880;2023-02-28T15:40:35;3.90;99.90
1383;DHT22;685;47.196;11.880;2023-02-28T15:43:05;3.90;99.90
1383;DHT22;685;47.196;11.880;2023-02-28T15:45:36;3.90;99.90
1383;DHT22;685;47.196;11.880;2023-02-28T15:48:14;3.80;99.90
1383;DHT22;685;47.196;11.880;2023-02-28T15:50:42;3.80;99.90
1383;DHT22;685;47.196;11.880;2023-02-28T15:53:13;3.80;99.90
1383;DHT22;685;47.196;11.880;2023-02-28T15:55:41;3.80;99.90
1383;DHT22;685;47.196;11.880;2023-02-28T15:58:11;3.70;99.90
1383;DHT22;685;47.196;11.880;2023-02-28T16:00:43;3.60;99.90
1383;DHT22;685;47.196;11.880;2023-02-28T16:03:33;3.60;99.90
1383;DHT22;685;47.196;11.880;2023-02-28T16:06:38;3.70;99.90
1383;DHT22;685;47.196;11.880;2023-02-28T16:09:10;3.60;99.90
1383;DHT22;685;47.196;11.880;2023-02-28T16:11:40;3.40;99.90
1383;DHT22;685;47.196;11.880;2023-02-28T16:14:13;3.30;99.90
1383;DHT22;685;47.196;11.880;2023-02-28T16:16:44;3.30;99.90
1383;DHT22;685;47.196;11.880;2023-02-28T16:19:11;3.20;99.90
1383;DHT22;685;47.196;11.880;2023-02-28T16:21:38;3.30;99.90
1383;DHT22;685;47.196;11.880;2023-02-28T16:24:06;3.40;99.90
1383;DHT22;685;47.196;11.880;2023-02-28T16:26:33;3.20;99.90
1383;DHT22;685;47.196;11.880;2023-02-28T16:29:01;3.20;99.90
1383;DHT22;685;47.196;11.880;2023-02-28T16:31:29;3.00;99.90
1383;DHT22;685;47.196;11.880;2023-02-28T16:33:57;3.00;99.90
1383;DHT22;685;47.196;11.880;2023-02-28T16:36:24;3.00;99.90
1383;DHT22;685;47.196;11.880;2023-02-28T16:38:51;3.00;99.90
1383;DHT22;685;47.196;11.880;2023-02-28T16:41:19;3.00;99.90
1383;DHT22;685;47.196;11.880;2023-02-28T16:43:48;3.00;99.90
1383;DHT22;685;47.196;11.880;2023-02-28T16:46:16;3.00;99.90
1383;DHT22;685;47.196;11.880;2023-02-28T16:48:43;2.80;99.90